createdAt,value
2023-05-30T00:00:29.775Z,71.26
2023-05-30T00:02:56.407Z,71.60
2023-05-30T00:05:27.316Z,71.85
2023-05-30T00:07:53.743Z,71.58
2023-05-30T00:10:20.215Z,71.65
2023-05-30T00:12:47.882Z,71.89
2023-05-30T00:15:14.453Z,71.57
2023-05-30T00:17:41.992Z,71.38
2023-05-30T00:20:10.079Z,71.68
2023-05-30T00:22:42.826Z,71.69
2023-05-30T00:25:10.600Z,71.49
2023-05-30T00:27:38.909Z,71.96
2023-05-30T00:30:06.009Z,72.16
2023-05-30T00:32:34.659Z,72.60
2023-05-30T00:35:03.879Z,72.68
2023-05-30T00:37:31.918Z,73.14
2023-05-30T00:40:02.878Z,73.07
2023-05-30T00:42:29.834Z,73.01
2023-05-30T00:44:56.436Z,73.23
2023-05-30T00:47:23.119Z,73.16
2023-05-30T00:49:49.728Z,73.08
2023-05-30T00:52:16.864Z,73.24
2023-05-30T00:54:49.614Z,73.55
2023-05-30T00:57:16.927Z,74.02
2023-05-30T00:59:44.935Z,73.73
2023-05-30T01:02:11.393Z,74.06
2023-05-30T01:04:38.092Z,73.49
2023-05-30T01:07:08.939Z,74.06
2023-05-30T01:09:36.992Z,73.88
2023-05-30T01:12:34.666Z,74.00
2023-05-30T01:15:13.146Z,74.18
2023-05-30T01:18:04.483Z,74.33
2023-05-30T01:20:45.571Z,74.32
2023-05-30T01:23:37.962Z,74.73
2023-05-30T01:26:33.131Z,74.85
2023-05-30T01:29:03.628Z,74.78
2023-05-30T01:31:33.303Z,74.59
2023-05-30T01:34:01.376Z,74.89
2023-05-30T01:36:29.799Z,75.04
2023-05-30T01:38:56.206Z,75.39
2023-05-30T01:41:40.826Z,75.44
2023-05-30T01:44:18.622Z,75.47
2023-05-30T01:47:14.990Z,75.77
2023-05-30T01:49:56.097Z,75.80
2023-05-30T01:52:43.066Z,75.84
2023-05-30T01:55:11.849Z,75.87
2023-05-30T01:57:45.995Z,76.04
2023-05-30T02:00:15.753Z,76.18
2023-05-30T02:02:45.926Z,76.41
2023-05-30T02:05:12.440Z,76.57
2023-05-30T02:07:39.030Z,76.79
2023-05-30T02:10:07.076Z,76.85
2023-05-30T02:12:36.125Z,76.89
2023-05-30T02:15:07.378Z,77.05
2023-05-30T02:17:35.062Z,77.07
2023-05-30T02:20:02.233Z,77.00
2023-05-30T02:22:28.866Z,77.32
2023-05-30T02:24:57.104Z,77.06
2023-05-30T02:27:26.318Z,77.26
2023-05-30T02:29:53.092Z,77.31
2023-05-30T02:32:19.524Z,77.33
2023-05-30T02:34:45.935Z,77.18
2023-05-30T02:37:13.488Z,77.36
2023-05-30T02:39:42.509Z,77.59
2023-05-30T02:42:09.537Z,77.69
2023-05-30T02:44:35.972Z,77.63
2023-05-30T02:47:02.457Z,77.74
2023-05-30T02:49:28.978Z,78.07
2023-05-30T02:51:55.821Z,78.30
2023-05-30T02:54:22.449Z,78.35
2023-05-30T02:56:48.848Z,78.48
2023-05-30T02:59:15.238Z,78.57
2023-05-30T03:01:41.731Z,78.50
2023-05-30T03:04:08.172Z,78.86
2023-05-30T03:06:38.876Z,79.05
2023-05-30T03:09:05.411Z,79.16
2023-05-30T03:11:31.822Z,79.28
2023-05-30T03:13:58.220Z,79.52
2023-05-30T03:16:28.365Z,79.24
2023-05-30T03:18:55.152Z,79.41
2023-05-30T03:21:26.850Z,79.56
2023-05-30T03:23:53.474Z,79.67
2023-05-30T03:26:20.954Z,80.01
2023-05-30T03:28:47.857Z,79.89
2023-05-30T03:31:23.527Z,79.69
2023-05-30T03:33:50.565Z,79.57
2023-05-30T03:36:19.942Z,80.38
2023-05-30T03:38:52.967Z,80.27
2023-05-30T03:41:19.834Z,80.05
2023-05-30T03:43:46.580Z,79.56
2023-05-30T03:46:15.527Z,79.81
2023-05-30T03:48:51.174Z,79.72
2023-05-30T03:51:18.071Z,79.80
2023-05-30T03:53:53.578Z,80.08
2023-05-30T03:56:20.077Z,78.79
2023-05-30T03:58:46.897Z,78.61
2023-05-30T04:01:13.915Z,78.15
2023-05-30T04:03:40.357Z,77.99
2023-05-30T04:06:09.814Z,77.54
2023-05-30T04:08:43.519Z,76.32
2023-05-30T04:11:10.537Z,75.92
2023-05-30T04:13:37.046Z,75.58
2023-05-30T04:16:07.695Z,75.29
2023-05-30T04:18:46.706Z,75.56
2023-05-30T04:21:13.448Z,75.11
2023-05-30T04:23:41.502Z,74.87
2023-05-30T04:26:11.316Z,74.70
2023-05-30T04:28:39.424Z,74.79
2023-05-30T04:31:20.922Z,74.01
2023-05-30T04:33:50.022Z,74.33
2023-05-30T04:36:21.328Z,73.42
2023-05-30T04:38:55.361Z,73.73
2023-05-30T04:41:25.899Z,73.11
2023-05-30T04:43:57.697Z,72.43
2023-05-30T04:46:28.934Z,72.34
2023-05-30T04:49:02.367Z,71.97
2023-05-30T04:51:29.632Z,72.08
2023-05-30T04:53:56.359Z,71.72
2023-05-30T04:56:22.834Z,72.02
2023-05-30T04:58:50.446Z,71.35
2023-05-30T05:01:17.261Z,71.12
2023-05-30T05:03:44.533Z,71.19
2023-05-30T05:06:17.463Z,70.85
2023-05-30T05:08:43.964Z,70.99
2023-05-30T05:11:14.521Z,70.98
2023-05-30T05:13:41.241Z,70.26
2023-05-30T05:16:09.947Z,70.56
2023-05-30T05:18:36.446Z,70.68
2023-05-30T05:21:03.286Z,69.80
2023-05-30T05:23:30.313Z,69.27
2023-05-30T05:25:57.789Z,69.38
2023-05-30T05:28:26.098Z,69.09
2023-05-30T05:30:53.510Z,69.18
2023-05-30T05:33:26.491Z,69.08
2023-05-30T05:36:07.727Z,68.78
2023-05-30T05:38:34.234Z,68.68
2023-05-30T05:41:00.895Z,68.25
2023-05-30T05:43:29.585Z,67.29
2023-05-30T05:46:03.061Z,67.45
2023-05-30T05:48:35.849Z,67.55
2023-05-30T05:51:03.949Z,66.45
2023-05-30T05:53:30.615Z,66.40
2023-05-30T05:55:57.525Z,66.36
2023-05-30T05:58:24.087Z,66.17
2023-05-30T06:00:51.602Z,65.83
2023-05-30T06:03:18.076Z,65.91
2023-05-30T06:05:45.673Z,65.51
2023-05-30T06:08:12.106Z,66.58
2023-05-30T06:10:38.551Z,64.83
2023-05-30T06:13:06.143Z,64.61
2023-05-30T06:15:42.122Z,63.06
2023-05-30T06:18:08.814Z,63.77
2023-05-30T06:20:35.319Z,63.67
2023-05-30T06:23:04.676Z,63.31
2023-05-30T06:25:32.363Z,62.98
2023-05-30T06:28:12.202Z,63.44
2023-05-30T06:30:39.137Z,63.20
2023-05-30T06:33:08.693Z,63.56
2023-05-30T06:35:44.678Z,63.23
2023-05-30T06:38:11.533Z,61.46
2023-05-30T06:40:37.959Z,62.56
2023-05-30T06:43:04.496Z,60.14
2023-05-30T06:45:36.346Z,59.86
2023-05-30T06:48:03.120Z,60.98
2023-05-30T06:50:29.785Z,59.44
2023-05-30T06:52:56.252Z,60.60
2023-05-30T06:55:22.751Z,60.17
2023-05-30T06:57:55.241Z,60.44
2023-05-30T07:00:23.267Z,60.41
2023-05-30T07:02:49.981Z,60.74
2023-05-30T07:05:18.663Z,60.09
2023-05-30T07:07:45.778Z,59.25
2023-05-30T07:10:13.559Z,60.65
2023-05-30T07:12:40.077Z,58.73
2023-05-30T07:15:08.050Z,56.84
2023-05-30T07:17:34.592Z,54.89
2023-05-30T07:20:01.156Z,55.54
2023-05-30T07:22:27.615Z,51.77
2023-05-30T07:24:56.142Z,51.99
2023-05-30T07:27:22.572Z,52.43
2023-05-30T07:29:49.065Z,52.19
2023-05-30T07:32:15.758Z,52.60
2023-05-30T07:34:43.145Z,53.69
2023-05-30T07:37:10.115Z,53.66
2023-05-30T07:39:36.715Z,53.96
2023-05-30T07:42:03.248Z,53.01
2023-05-30T07:44:29.738Z,53.53
2023-05-30T07:46:57.240Z,53.51
2023-05-30T07:49:24.011Z,52.70
2023-05-30T07:51:50.680Z,54.04
2023-05-30T07:54:17.294Z,53.27
2023-05-30T07:56:48.320Z,54.09
2023-05-30T07:59:15.755Z,53.77
2023-05-30T08:01:44.094Z,54.25
2023-05-30T08:04:10.758Z,55.15
2023-05-30T08:06:38.368Z,54.54
2023-05-30T08:09:05.377Z,55.78
2023-05-30T08:11:31.795Z,55.78
2023-05-30T08:13:58.218Z,54.50
2023-05-30T08:16:26.106Z,53.96
2023-05-30T08:18:53.552Z,54.27
2023-05-30T08:21:19.980Z,53.99
2023-05-30T08:23:47.492Z,54.64
2023-05-30T08:26:14.547Z,54.58
2023-05-30T08:28:41.520Z,54.34
2023-05-30T08:31:10.056Z,54.00
2023-05-30T08:33:37.565Z,53.58
2023-05-30T08:36:04.585Z,54.04
2023-05-30T08:38:31.148Z,52.58
2023-05-30T08:40:57.826Z,53.92
2023-05-30T08:43:24.529Z,52.67
2023-05-30T08:45:54.240Z,53.17
2023-05-30T08:48:24.238Z,51.75
2023-05-30T08:50:52.673Z,51.06
2023-05-30T08:53:27.245Z,51.65
2023-05-30T08:56:02.750Z,51.59
2023-05-30T08:58:36.156Z,51.87
2023-05-30T09:01:04.016Z,51.85
2023-05-30T09:03:32.190Z,51.69
2023-05-30T09:06:08.594Z,51.44
2023-05-30T09:08:35.625Z,50.37
2023-05-30T09:11:03.820Z,51.19
2023-05-30T09:13:30.285Z,50.56
2023-05-30T09:15:56.821Z,50.86
2023-05-30T09:18:23.279Z,51.77
2023-05-30T09:20:50.449Z,51.26
2023-05-30T09:23:17.927Z,50.66
2023-05-30T09:25:50.901Z,51.17
2023-05-30T09:28:27.525Z,51.56
2023-05-30T09:30:59.974Z,50.23
2023-05-30T09:33:51.860Z,51.93
2023-05-30T09:36:23.513Z,51.04
2023-05-30T09:38:53.974Z,50.84
2023-05-30T09:41:30.105Z,49.84
2023-05-30T09:43:57.899Z,50.24
2023-05-30T09:46:31.444Z,49.23
2023-05-30T09:48:58.646Z,50.32
2023-05-30T09:51:26.948Z,49.88
2023-05-30T09:54:04.702Z,49.87
2023-05-30T09:56:41.477Z,50.36
2023-05-30T09:59:09.755Z,49.97
2023-05-30T10:01:47.785Z,50.21
2023-05-30T10:04:24.838Z,49.95
2023-05-30T10:06:53.674Z,48.35
2023-05-30T10:09:24.695Z,49.41
2023-05-30T10:11:52.269Z,48.94
2023-05-30T10:14:18.707Z,48.82
2023-05-30T10:16:59.171Z,49.91
2023-05-30T10:19:27.283Z,49.63
2023-05-30T10:24:23.735Z,48.93
2023-05-30T10:27:04.828Z,48.36
2023-05-30T10:29:47.389Z,48.96
2023-05-30T10:32:19.405Z,47.48
2023-05-30T10:35:02.183Z,48.54
2023-05-30T10:37:28.864Z,48.33
2023-05-30T10:40:36.481Z,48.88
2023-05-30T10:43:27.871Z,49.07
2023-05-30T10:46:28.952Z,48.59
2023-05-30T10:49:07.415Z,49.66
2023-05-30T10:52:04.047Z,49.82
2023-05-30T10:54:34.527Z,48.91
2023-05-30T10:57:24.062Z,48.71
2023-05-30T10:59:57.741Z,49.20
2023-05-30T11:02:41.640Z,50.34
2023-05-30T11:05:10.749Z,50.33
2023-05-30T11:07:46.357Z,50.12
2023-05-30T11:10:14.700Z,51.14
2023-05-30T11:12:49.286Z,48.27
2023-05-30T11:15:19.850Z,48.30
2023-05-30T11:17:46.551Z,49.56
2023-05-30T11:20:19.038Z,51.59
2023-05-30T11:23:03.990Z,49.62
2023-05-30T11:25:45.269Z,49.61
2023-05-30T11:28:17.214Z,49.21
2023-05-30T11:30:48.450Z,51.33
2023-05-30T11:33:17.321Z,50.72
2023-05-30T11:35:49.421Z,50.77
2023-05-30T11:38:23.373Z,51.65
2023-05-30T11:40:51.712Z,52.00
2023-05-30T11:43:18.659Z,51.04
2023-05-30T11:45:49.418Z,52.23
2023-05-30T11:48:16.162Z,51.65
2023-05-30T11:50:45.955Z,51.90
2023-05-30T11:53:15.781Z,52.38
2023-05-30T11:55:46.675Z,50.85
2023-05-30T11:58:18.231Z,51.54
2023-05-30T12:00:46.065Z,53.57
2023-05-30T12:03:40.584Z,52.34
2023-05-30T12:06:15.105Z,51.44
2023-05-30T12:08:43.178Z,51.18
2023-05-30T12:11:16.871Z,50.83
2023-05-30T12:13:43.834Z,50.42
2023-05-30T12:16:12.741Z,50.51
2023-05-30T12:18:44.025Z,51.95
2023-05-30T12:21:13.490Z,50.74
2023-05-30T12:23:43.431Z,51.47
2023-05-30T12:26:27.188Z,49.81
2023-05-30T12:28:56.055Z,50.78
2023-05-30T12:31:25.865Z,51.83
2023-05-30T12:33:52.398Z,51.75
2023-05-30T12:36:30.030Z,51.32
2023-05-30T12:38:58.962Z,52.92
2023-05-30T12:41:32.368Z,51.29
2023-05-30T12:44:00.561Z,50.95
2023-05-30T12:46:32.338Z,51.15
2023-05-30T12:48:58.831Z,51.63
2023-05-30T12:51:25.319Z,50.56
2023-05-30T12:53:56.708Z,52.22
2023-05-30T12:56:23.349Z,50.62
2023-05-30T12:58:49.916Z,51.98
2023-05-30T13:01:16.409Z,51.26
2023-05-30T13:03:43.045Z,49.97
2023-05-30T13:06:17.114Z,51.22
2023-05-30T13:08:43.703Z,50.09
2023-05-30T13:11:10.157Z,49.86
2023-05-30T13:13:37.417Z,50.01
2023-05-30T13:16:08.030Z,50.52
2023-05-30T13:18:34.559Z,50.94
2023-05-30T13:21:01.249Z,50.60
2023-05-30T13:23:27.922Z,51.23
2023-05-30T13:25:55.338Z,50.95
2023-05-30T13:28:24.482Z,51.15
2023-05-30T13:30:51.153Z,51.19
2023-05-30T13:33:17.602Z,51.02
2023-05-30T13:35:55.743Z,51.91
2023-05-30T13:38:22.350Z,52.24
2023-05-30T13:40:48.898Z,52.39
2023-05-30T13:43:15.426Z,52.74
2023-05-30T13:45:43.150Z,52.75
2023-05-30T13:48:09.767Z,53.52
2023-05-30T13:50:38.334Z,54.18
2023-05-30T13:53:05.979Z,54.83
2023-05-30T13:55:34.335Z,54.17
2023-05-30T13:58:00.855Z,54.87
2023-05-30T14:00:27.938Z,54.27
2023-05-30T14:02:58.126Z,54.65
2023-05-30T14:05:29.292Z,54.25
2023-05-30T14:08:00.583Z,54.29
2023-05-30T14:10:37.253Z,54.27
2023-05-30T14:13:04.148Z,55.28
2023-05-30T14:15:33.840Z,54.81
2023-05-30T14:18:00.820Z,55.39
2023-05-30T14:20:27.306Z,55.12
2023-05-30T14:22:53.737Z,55.40
2023-05-30T14:25:20.251Z,55.47
2023-05-30T14:27:46.734Z,55.62
2023-05-30T14:30:18.631Z,55.33
2023-05-30T14:32:46.295Z,54.96
2023-05-30T14:35:14.593Z,55.15
2023-05-30T14:37:41.688Z,54.47
2023-05-30T14:40:11.307Z,53.87
2023-05-30T14:42:38.790Z,53.99
2023-05-30T14:45:05.868Z,54.63
2023-05-30T14:47:34.075Z,55.25
2023-05-30T14:50:03.256Z,55.77
2023-05-30T14:52:29.996Z,55.25
2023-05-30T14:55:03.521Z,54.94
2023-05-30T14:57:30.427Z,55.22
2023-05-30T14:59:59.331Z,55.28
2023-05-30T15:02:26.064Z,55.42
2023-05-30T15:04:53.073Z,55.68
2023-05-30T15:07:19.497Z,55.36
2023-05-30T15:09:45.898Z,56.80
2023-05-30T15:12:12.381Z,57.61
2023-05-30T15:14:38.778Z,55.95
2023-05-30T15:17:06.330Z,54.60
2023-05-30T15:19:32.837Z,55.67
2023-05-30T15:22:00.806Z,55.26
2023-05-30T15:24:29.048Z,56.90
2023-05-30T15:26:55.896Z,55.77
2023-05-30T15:29:22.323Z,56.88
2023-05-30T15:31:51.383Z,56.46
2023-05-30T15:34:22.074Z,57.05
2023-05-30T15:36:50.094Z,57.01
2023-05-30T15:39:19.766Z,56.34
2023-05-30T15:41:48.717Z,55.97
2023-05-30T15:44:16.811Z,56.44
2023-05-30T15:46:43.605Z,56.16
2023-05-30T15:49:10.099Z,56.56
2023-05-30T15:51:37.123Z,56.33
2023-05-30T15:54:04.151Z,56.65
2023-05-30T15:56:30.725Z,56.86
2023-05-30T15:58:57.178Z,56.49
2023-05-30T16:01:23.613Z,57.21
2023-05-30T16:03:54.542Z,56.71
2023-05-30T16:06:22.561Z,57.11
2023-05-30T16:08:49.217Z,56.95
2023-05-30T16:11:15.646Z,57.59
2023-05-30T16:13:42.054Z,57.40
2023-05-30T16:16:08.684Z,58.80
2023-05-30T16:18:35.134Z,58.43
2023-05-30T16:21:01.797Z,58.76
2023-05-30T16:23:28.459Z,57.93
2023-05-30T16:25:54.989Z,57.67
2023-05-30T16:28:21.472Z,59.93
2023-05-30T16:30:48.064Z,58.84
2023-05-30T16:33:16.181Z,58.96
2023-05-30T16:35:42.583Z,59.51
2023-05-30T16:38:09.084Z,59.15
2023-05-30T16:40:35.496Z,58.82
2023-05-30T16:43:05.172Z,58.30
2023-05-30T16:45:31.619Z,58.40
2023-05-30T16:47:59.560Z,57.94
2023-05-30T16:50:27.109Z,58.05
2023-05-30T16:52:53.559Z,57.59
2023-05-30T16:55:20.075Z,58.23
2023-05-30T16:57:47.279Z,57.73
2023-05-30T17:00:14.165Z,57.90
2023-05-30T17:02:41.126Z,58.26
2023-05-30T17:05:08.526Z,57.75
2023-05-30T17:07:35.042Z,58.29
2023-05-30T17:10:01.598Z,58.51
2023-05-30T17:12:28.067Z,58.72
2023-05-30T17:14:54.739Z,59.59
2023-05-30T17:17:21.444Z,60.00
2023-05-30T17:19:47.839Z,59.87
2023-05-30T17:22:14.267Z,59.92
2023-05-30T17:24:40.842Z,60.56
2023-05-30T17:27:07.693Z,59.87
2023-05-30T17:29:39.349Z,59.64
2023-05-30T17:32:06.236Z,60.03
2023-05-30T17:34:33.015Z,59.67
2023-05-30T17:36:59.602Z,59.52
2023-05-30T17:39:26.330Z,59.37
2023-05-30T17:41:52.699Z,58.74
2023-05-30T17:44:22.194Z,59.58
2023-05-30T17:46:48.966Z,59.30
2023-05-30T17:49:15.456Z,59.54
2023-05-30T17:51:41.885Z,59.71
2023-05-30T17:54:08.354Z,60.17
2023-05-30T17:56:34.887Z,60.23
2023-05-30T17:59:02.136Z,60.54
2023-05-30T18:01:28.619Z,61.48
2023-05-30T18:03:55.182Z,60.39
2023-05-30T18:06:27.187Z,60.23
2023-05-30T18:08:54.854Z,60.05
2023-05-30T18:11:22.220Z,60.91
2023-05-30T18:13:51.133Z,60.26
2023-05-30T18:16:18.183Z,61.48
2023-05-30T18:18:44.589Z,60.61
2023-05-30T18:21:11.943Z,61.02
2023-05-30T18:23:38.446Z,61.17
2023-05-30T18:26:04.923Z,62.17
2023-05-30T18:28:31.339Z,61.60
2023-05-30T18:30:58.016Z,63.36
2023-05-30T18:33:25.402Z,60.87
2023-05-30T18:36:03.981Z,61.15
2023-05-30T18:38:38.556Z,61.07
2023-05-30T18:41:05.083Z,60.69
2023-05-30T18:43:31.461Z,61.39
2023-05-30T18:45:58.020Z,60.74
2023-05-30T18:48:35.648Z,61.31
2023-05-30T18:51:06.902Z,61.67
2023-05-30T18:53:33.476Z,62.26
2023-05-30T18:56:00.313Z,61.09
2023-05-30T18:58:28.286Z,61.25
2023-05-30T19:00:55.688Z,61.52
2023-05-30T19:03:24.157Z,61.79
2023-05-30T19:05:50.767Z,62.38
2023-05-30T19:08:17.155Z,62.46
2023-05-30T19:10:43.713Z,62.43
2023-05-30T19:13:12.127Z,62.81
2023-05-30T19:15:38.630Z,63.07
2023-05-30T19:18:05.218Z,64.02
2023-05-30T19:20:31.774Z,64.04
2023-05-30T19:23:00.618Z,64.65
2023-05-30T19:25:27.133Z,64.46
2023-05-30T19:28:07.910Z,64.57
2023-05-30T19:30:36.040Z,65.61
2023-05-30T19:33:04.481Z,66.64
2023-05-30T19:35:31.218Z,65.98
2023-05-30T19:37:59.386Z,66.10
2023-05-30T19:40:28.344Z,66.52
2023-05-30T19:42:54.804Z,66.56
2023-05-30T19:45:21.432Z,66.28
2023-05-30T19:47:51.068Z,66.72
2023-05-30T19:50:17.757Z,66.35
2023-05-30T19:52:47.056Z,67.01
2023-05-30T19:55:13.590Z,67.19
2023-05-30T19:57:41.027Z,67.21
2023-05-30T20:00:08.136Z,67.53
2023-05-30T20:02:34.542Z,67.69
2023-05-30T20:05:01.147Z,67.46
2023-05-30T20:07:27.570Z,67.36
2023-05-30T20:09:54.223Z,67.56
2023-05-30T20:12:20.740Z,67.89
2023-05-30T20:14:47.133Z,67.88
2023-05-30T20:17:13.561Z,67.84
2023-05-30T20:19:39.974Z,68.81
2023-05-30T20:22:06.423Z,68.24
2023-05-30T20:24:32.881Z,68.82
2023-05-30T20:27:00.751Z,68.90
2023-05-30T20:29:27.130Z,68.77
2023-05-30T20:31:53.584Z,68.83
2023-05-30T20:34:20.021Z,69.34
2023-05-30T20:36:46.725Z,70.18
2023-05-30T20:39:13.164Z,69.22
2023-05-30T20:41:39.727Z,69.55
2023-05-30T20:44:08.610Z,69.21
2023-05-30T20:46:35.692Z,69.66
2023-05-30T20:49:02.090Z,69.96
2023-05-30T20:51:28.520Z,70.33
2023-05-30T20:53:54.939Z,70.16
2023-05-30T20:56:21.578Z,70.33
2023-05-30T20:58:47.997Z,70.81
2023-05-30T21:01:15.042Z,70.70
2023-05-30T21:03:41.590Z,71.13
2023-05-30T21:06:08.250Z,70.92
2023-05-30T21:08:37.569Z,71.13
2023-05-30T21:11:04.415Z,71.42
2023-05-30T21:13:31.111Z,71.62
2023-05-30T21:15:57.539Z,71.71
2023-05-30T21:18:23.966Z,72.27
2023-05-30T21:20:50.603Z,72.29
2023-05-30T21:23:17.136Z,72.29
2023-05-30T21:25:43.526Z,72.60
2023-05-30T21:28:11.813Z,72.34
2023-05-30T21:30:39.781Z,72.75
2023-05-30T21:33:06.459Z,73.35
2023-05-30T21:35:34.411Z,73.70
2023-05-30T21:38:00.927Z,73.47
2023-05-30T21:40:27.343Z,73.76
2023-05-30T21:42:53.758Z,74.27
2023-05-30T21:45:20.556Z,74.38
2023-05-30T21:47:47.073Z,75.00
2023-05-30T21:50:14.035Z,75.07
2023-05-30T21:52:40.450Z,75.30
2023-05-30T21:55:08.781Z,75.36
2023-05-30T21:57:35.206Z,75.66
2023-05-30T22:00:03.299Z,75.67
2023-05-30T22:02:29.844Z,75.84
2023-05-30T22:04:56.382Z,76.12
2023-05-30T22:07:22.753Z,76.01
2023-05-30T22:09:49.145Z,76.35
2023-05-30T22:12:15.686Z,76.14
2023-05-30T22:14:42.057Z,76.71
2023-05-30T22:17:10.478Z,76.66
2023-05-30T22:19:36.882Z,77.09
2023-05-30T22:22:04.606Z,77.21
2023-05-30T22:24:33.890Z,76.95
2023-05-30T22:27:00.668Z,77.31
2023-05-30T22:29:28.790Z,77.13
2023-05-30T22:31:55.848Z,77.60
2023-05-30T22:34:22.334Z,77.82
2023-05-30T22:36:48.730Z,77.82
2023-05-30T22:39:15.608Z,77.86
2023-05-30T22:41:41.983Z,77.89
2023-05-30T22:44:08.743Z,77.97
2023-05-30T22:46:35.265Z,77.88
2023-05-30T22:49:01.757Z,78.35
2023-05-30T22:51:28.174Z,78.57
2023-05-30T22:53:54.699Z,78.33
2023-05-30T22:56:23.343Z,78.69
2023-05-30T22:58:50.018Z,78.69
2023-05-30T23:01:17.541Z,78.92
2023-05-30T23:03:44.860Z,78.79
2023-05-30T23:06:11.339Z,78.96
2023-05-30T23:08:37.761Z,79.08
2023-05-30T23:11:04.273Z,78.99
2023-05-30T23:13:30.697Z,79.13
2023-05-30T23:15:57.163Z,79.09
2023-05-30T23:18:23.608Z,79.33
2023-05-30T23:20:50.043Z,79.53
2023-05-30T23:23:16.502Z,79.30
2023-05-30T23:25:42.899Z,79.50
2023-05-30T23:28:09.259Z,79.78
2023-05-30T23:30:35.907Z,79.71
2023-05-30T23:33:02.910Z,80.09
2023-05-30T23:35:29.351Z,79.98
2023-05-30T23:37:55.752Z,80.23
2023-05-30T23:40:22.184Z,80.12
2023-05-30T23:42:49.401Z,80.14
2023-05-30T23:45:15.825Z,80.17
2023-05-30T23:47:42.329Z,79.88
2023-05-30T23:50:09.026Z,80.39
2023-05-30T23:52:35.505Z,80.51
2023-05-30T23:55:04.206Z,80.34
2023-05-30T23:57:31.570Z,80.52
2023-05-30T23:59:58.006Z,80.67
